Time;durP1;ratioP1;P1;durP2;ratioP2;P2;SDS_P1;SDS_P2;PMS_P1;PMS_P2;Temp;Humidity;BMP_temperature;BMP_pressure;BME280_temperature;BME280_humidity;BME280_pressure;Samples;Min_cycle;Max_cycle;Signal;HPM_P1;HPM_P2
2022/11/06 00:00:04;;;;;;;0.10;0.10;;;;;;;7.95;100.00;101415.69;5007183;28;20504;-72
2022/11/06 00:02:30;;;;;;;0.10;0.10;;;;;;;8.19;100.00;101408.06;4983558;28;20026;-69
2022/11/06 00:06:46;;;;;;;0.10;0.10;;;;;;;8.04;100.00;101422.31;5004179;28;20030;-75
2022/11/06 00:07:44;;;;;;;0.10;0.10;;;;;;;7.95;100.00;101427.22;4985686;28;20550;-74
2022/11/06 00:10:10;;;;;;;0.10;0.10;;;;;;;7.89;100.00;101422.25;4993767;28;20386;-73
2022/11/06 00:12:35;;;;;;;0.10;0.10;;;;;;;7.82;100.00;101402.16;4989570;28;20025;-75
2022/11/06 00:15:00;;;;;;;0.10;0.10;;;;;;;7.98;100.00;101426.22;4973935;28;20049;-72
2022/11/06 00:17:25;;;;;;;0.10;0.10;;;;;;;7.69;100.00;101428.72;5005774;28;20117;-73
2022/11/06 00:19:51;;;;;;;0.10;0.10;;;;;;;7.78;100.00;101444.25;5004039;28;20026;-74
2022/11/06 00:22:16;;;;;;;0.10;0.10;;;;;;;7.47;100.00;101423.72;4979280;28;20309;-73
2022/11/06 00:24:41;;;;;;;0.10;0.10;;;;;;;7.52;100.00;101442.19;4999758;28;20451;-73
2022/11/06 00:27:07;;;;;;;0.10;0.10;;;;;;;7.68;100.00;101424.34;5004061;28;20033;-75
2022/11/06 00:29:32;;;;;;;0.10;0.10;;;;;;;7.74;100.00;101434.69;4986629;28;20033;-77
2022/11/06 00:31:57;;;;;;;0.20;0.20;;;;;;;7.78;100.00;101422.00;5001568;28;20061;-73
2022/11/06 00:34:23;;;;;;;0.10;0.10;;;;;;;7.55;100.00;101407.28;4987514;28;21009;-73
2022/11/06 00:36:48;;;;;;;0.10;0.10;;;;;;;7.53;100.00;101385.97;4984503;28;20114;-73
2022/11/06 00:39:13;;;;;;;0.10;0.10;;;;;;;8.00;100.00;101397.56;4999163;28;20105;-71
2022/11/06 00:41:39;;;;;;;0.10;0.10;;;;;;;7.93;100.00;101388.19;4989113;28;20026;-73
2022/11/06 00:44:04;;;;;;;0.10;0.10;;;;;;;7.74;100.00;101404.41;4985695;28;20041;-73
2022/11/06 00:46:30;;;;;;;0.10;0.10;;;;;;;7.81;100.00;101400.44;5005545;28;20397;-75
2022/11/06 00:48:55;;;;;;;0.10;0.10;;;;;;;7.78;100.00;101396.16;5006568;28;20099;-77
2022/11/06 00:51:25;;;;;;;0.10;0.10;;;;;;;7.79;100.00;101397.00;5008475;28;20030;-75
2022/11/06 00:54:02;;;;;;;0.10;0.10;;;;;;;7.60;100.00;101397.16;4984021;28;20100;-73
2022/11/06 00:56:27;;;;;;;0.10;0.10;;;;;;;7.75;100.00;101401.66;4991789;28;20034;-73
2022/11/06 00:58:53;;;;;;;0.13;0.13;;;;;;;7.76;100.00;101390.03;5001277;28;20358;-75
2022/11/06 01:01:24;;;;;;;0.10;0.10;;;;;;;7.88;100.00;101407.16;5001706;28;20021;-74
2022/11/06 01:03:54;;;;;;;0.10;0.10;;;;;;;7.63;100.00;101407.69;4983737;28;20034;-76
2022/11/06 01:06:21;;;;;;;0.10;0.10;;;;;;;7.54;100.00;101406.41;5006962;28;20059;-72
2022/11/06 01:08:47;;;;;;;0.10;0.10;;;;;;;7.52;100.00;101397.59;4985167;28;20076;-74
2022/11/06 01:11:16;;;;;;;0.10;0.10;;;;;;;7.46;100.00;101398.81;5006050;28;20120;-74
2022/11/06 01:13:42;;;;;;;0.10;0.10;;;;;;;7.59;100.00;101395.44;5007899;28;20136;-76
2022/11/06 01:16:10;;;;;;;0.10;0.10;;;;;;;7.40;100.00;101400.97;4972721;28;20363;-71
2022/11/06 01:18:36;;;;;;;0.10;0.10;;;;;;;7.33;100.00;101387.94;5003901;28;20053;-73
2022/11/06 01:21:04;;;;;;;0.10;0.10;;;;;;;7.51;100.00;101387.88;5005824;28;20048;-75
2022/11/06 01:23:29;;;;;;;0.10;0.10;;;;;;;7.50;100.00;101388.81;5004492;28;20107;-72
2022/11/06 01:25:59;;;;;;;0.10;0.10;;;;;;;7.49;100.00;101366.59;4992913;28;20416;-73
2022/11/06 01:28:25;;;;;;;0.10;0.10;;;;;;;7.99;100.00;101377.13;5000752;28;20026;-75
2022/11/06 01:30:50;;;;;;;0.10;0.10;;;;;;;7.73;100.00;101374.16;4984961;28;20037;-73
2022/11/06 01:33:16;;;;;;;0.10;0.10;;;;;;;7.49;100.00;101347.88;4999471;28;20091;-75
2022/11/06 01:35:46;;;;;;;0.10;0.10;;;;;;;7.58;100.00;101369.66;4986879;28;20025;-76
2022/11/06 01:38:12;;;;;;;0.10;0.10;;;;;;;7.51;100.00;101369.16;4999787;28;20063;-75
2022/11/06 01:40:42;;;;;;;0.10;0.10;;;;;;;7.73;100.00;101362.59;5001187;28;20106;-73
2022/11/06 01:43:18;;;;;;;0.10;0.10;;;;;;;7.45;100.00;101377.50;4999000;28;20030;-75
2022/11/06 01:45:47;;;;;;;0.10;0.10;;;;;;;7.43;100.00;101369.59;5002925;28;20294;-74
2022/11/06 01:48:12;;;;;;;0.10;0.10;;;;;;;7.52;100.00;101337.97;4999162;28;20115;-74
2022/11/06 01:50:40;;;;;;;0.10;0.10;;;;;;;7.64;100.00;101346.16;4999991;28;20469;-75
2022/11/06 01:53:05;;;;;;;0.10;0.10;;;;;;;7.84;100.00;101354.81;4984910;28;20116;-72
2022/11/06 01:55:35;;;;;;;0.10;0.10;;;;;;;7.74;100.00;101334.91;5005785;28;20022;-72
2022/11/06 01:58:02;;;;;;;0.10;0.10;;;;;;;7.91;100.00;101348.16;5002825;28;20108;-73
2022/11/06 02:00:29;;;;;;;0.10;0.10;;;;;;;7.53;100.00;101332.53;4988173;28;20025;-76
2022/11/06 02:02:55;;;;;;;0.10;0.10;;;;;;;7.94;100.00;101347.13;4985079;28;20148;-73
2022/11/06 02:05:21;;;;;;;0.10;0.10;;;;;;;7.74;100.00;101337.56;5001930;28;20040;-76
2022/11/06 02:07:47;;;;;;;0.10;0.10;;;;;;;7.97;100.00;101346.94;4985354;28;20044;-72
2022/11/06 02:10:12;;;;;;;0.10;0.10;;;;;;;8.00;100.00;101360.13;5003380;28;20600;-75
2022/11/06 02:12:50;;;;;;;0.10;0.10;;;;;;;8.09;100.00;101356.06;5000643;28;20072;-74
2022/11/06 02:15:30;;;;;;;0.10;0.10;;;;;;;8.28;100.00;101352.28;4992610;28;20612;-72
2022/11/06 02:18:18;;;;;;;0.10;0.10;;;;;;;7.95;100.00;101354.19;5001919;28;20065;-77
2022/11/06 02:21:21;;;;;;;0.10;0.10;;;;;;;8.26;100.00;101347.88;5002786;28;20461;-75
2022/11/06 02:24:08;;;;;;;0.10;0.10;;;;;;;8.18;100.00;101343.94;4999711;28;20041;-73
2022/11/06 02:26:56;;;;;;;0.10;0.10;;;;;;;8.20;100.00;101342.91;5002569;28;20093;-75
2022/11/06 02:29:30;;;;;;;0.10;0.10;;;;;;;7.91;100.00;101300.03;4985871;28;20018;-76
2022/11/06 02:31:58;;;;;;;0.10;0.10;;;;;;;7.95;100.00;101314.94;4984161;28;20520;-74
2022/11/06 02:34:25;;;;;;;0.10;0.10;;;;;;;8.18;100.00;101328.78;5004793;28;20092;-75
2022/11/06 02:37:02;;;;;;;0.10;0.10;;;;;;;8.29;100.00;101333.47;4984676;28;20065;-78
2022/11/06 02:39:29;;;;;;;0.10;0.10;;;;;;;8.01;100.00;101313.72;4986452;28;20116;-77
2022/11/06 02:41:56;;;;;;;0.10;0.10;;;;;;;8.19;100.00;101319.78;4966760;28;20083;-75
2022/11/06 02:44:24;;;;;;;0.10;0.10;;;;;;;8.13;100.00;101293.41;5003951;28;20022;-74
2022/11/06 02:46:52;;;;;;;0.10;0.10;;;;;;;8.17;100.00;101316.34;4987457;28;20037;-75
2022/11/06 02:49:30;;;;;;;0.10;0.10;;;;;;;8.44;100.00;101325.44;5004775;28;20068;-76
2022/11/06 02:51:59;;;;;;;0.10;0.10;;;;;;;8.32;100.00;101322.59;5014923;28;20052;-76
2022/11/06 02:54:27;;;;;;;0.10;0.10;;;;;;;8.05;100.00;101293.88;4987849;28;20464;-77
2022/11/06 02:56:53;;;;;;;0.10;0.10;;;;;;;8.11;100.00;101292.63;5004072;28;20030;-72
2022/11/06 02:59:25;;;;;;;0.10;0.10;;;;;;;8.21;100.00;101312.50;5003930;28;20066;-75
2022/11/06 03:01:58;;;;;;;0.10;0.10;;;;;;;8.34;100.00;101317.13;5001950;28;20472;-75
2022/11/06 03:04:30;;;;;;;0.10;0.10;;;;;;;8.43;100.00;101311.22;4999958;28;20030;-74
2022/11/06 03:07:10;;;;;;;0.10;0.10;;;;;;;8.45;100.00;101312.00;4998882;28;20052;-74
2022/11/06 03:09:35;;;;;;;0.10;0.10;;;;;;;8.48;100.00;101303.78;4984272;28;20556;-75
2022/11/06 03:12:10;;;;;;;0.10;0.10;;;;;;;8.54;100.00;101300.72;5004094;28;20124;-75
2022/11/06 03:14:44;;;;;;;0.10;0.10;;;;;;;8.38;100.00;101305.28;4972941;28;20028;-74
2022/11/06 03:17:18;;;;;;;0.10;0.10;;;;;;;8.68;100.00;101299.03;4983137;28;20036;-75
2022/11/06 03:19:53;;;;;;;0.10;0.10;;;;;;;8.40;100.00;101308.72;4987087;28;20097;-76
2022/11/06 03:22:32;;;;;;;0.10;0.10;;;;;;;8.55;100.00;101321.19;4999410;28;20030;-75
2022/11/06 03:25:04;;;;;;;0.10;0.10;;;;;;;8.48;100.00;101294.88;5006512;28;20041;-73
2022/11/06 03:27:49;;;;;;;0.10;0.10;;;;;;;8.48;100.00;101324.31;4981936;28;20120;-78
2022/11/06 03:30:14;;;;;;;0.10;0.10;;;;;;;8.66;100.00;101330.38;5004380;28;20025;-76
2022/11/06 03:32:50;;;;;;;0.10;0.10;;;;;;;8.54;100.00;101303.41;4980393;28;20584;-73
2022/11/06 03:35:24;;;;;;;0.10;0.10;;;;;;;8.68;100.00;101309.75;4984907;28;20496;-75
2022/11/06 03:38:03;;;;;;;0.10;0.10;;;;;;;8.49;100.00;101304.66;4983652;28;20026;-76
2022/11/06 03:40:31;;;;;;;0.10;0.10;;;;;;;8.62;100.00;101288.69;5001902;28;20034;-75
2022/11/06 03:43:00;;;;;;;0.10;0.10;;;;;;;8.62;100.00;101278.84;4985520;28;20545;-75
2022/11/06 03:45:26;;;;;;;0.10;0.10;;;;;;;8.66;100.00;101277.69;5004202;28;20072;-75
2022/11/06 03:48:03;;;;;;;0.10;0.10;;;;;;;8.76;100.00;101288.69;4987224;28;20117;-74
2022/11/06 03:50:32;;;;;;;0.10;0.10;;;;;;;8.61;100.00;101279.78;5002317;28;20041;-74
2022/11/06 03:53:04;;;;;;;0.10;0.10;;;;;;;8.59;100.00;101273.72;5002466;28;20046;-75
2022/11/06 03:55:38;;;;;;;0.10;0.10;;;;;;;8.67;100.00;101271.38;5007084;28;20048;-76
2022/11/06 03:58:09;;;;;;;0.10;0.10;;;;;;;8.83;100.00;101282.00;4986711;28;20395;-76
2022/11/06 04:00:37;;;;;;;0.10;0.10;;;;;;;8.87;100.00;101255.91;5002414;28;20343;-76
2022/11/06 04:03:06;;;;;;;0.10;0.10;;;;;;;8.69;100.00;101256.09;4980973;28;20029;-76
2022/11/06 04:05:40;;;;;;;0.10;0.10;;;;;;;8.69;100.00;101256.09;4993999;28;20033;-74
2022/11/06 04:13:59;;;;;;;0.10;0.10;;;;;;;8.74;100.00;101255.78;5001271;28;20080;-75
2022/11/06 04:16:27;;;;;;;0.10;0.10;;;;;;;8.65;100.00;101221.59;4990606;28;20545;-74
2022/11/06 04:18:52;;;;;;;0.10;0.10;;;;;;;8.70;100.00;101247.09;5003930;28;20393;-76
2022/11/06 04:21:36;;;;;;;0.10;0.10;;;;;;;8.70;100.00;101254.28;5004123;28;20425;-75
2022/11/06 04:27:36;;;;;;;0.10;0.10;;;;;;;8.70;100.00;101239.06;4999006;28;20084;-75
2022/11/06 04:30:09;;;;;;;0.10;0.10;;;;;;;8.63;100.00;101243.09;5003836;28;20049;-74
2022/11/06 04:32:53;;;;;;;0.10;0.10;;;;;;;8.89;100.00;101229.00;4998137;28;20026;-74
2022/11/06 04:35:36;;;;;;;0.10;0.10;;;;;;;8.64;100.00;101234.09;5006208;28;20026;-74
2022/11/06 04:38:07;;;;;;;0.20;0.20;;;;;;;8.68;100.00;101238.31;4984559;28;20433;-73
2022/11/06 04:40:44;;;;;;;0.10;0.10;;;;;;;8.91;100.00;101230.63;4986032;28;20555;-74
2022/11/06 04:43:17;;;;;;;0.10;0.10;;;;;;;8.93;100.00;101225.19;4985992;28;20453;-76
2022/11/06 04:45:46;;;;;;;0.10;0.10;;;;;;;8.64;100.00;101226.06;4986790;28;20033;-77
2022/11/06 04:48:12;;;;;;;0.10;0.10;;;;;;;8.79;100.00;101215.34;4989558;28;20096;-76
2022/11/06 04:50:42;;;;;;;0.10;0.10;;;;;;;8.79;100.00;101210.84;4973747;28;20109;-73
2022/11/06 04:53:10;;;;;;;0.10;0.10;;;;;;;8.81;100.00;101208.94;4988680;28;20091;-75
2022/11/06 04:55:51;;;;;;;0.10;0.10;;;;;;;9.00;100.00;101205.06;5007419;28;20052;-73
2022/11/06 04:58:16;;;;;;;0.10;0.10;;;;;;;8.61;100.00;101207.53;5005221;28;20022;-76
2022/11/06 05:00:46;;;;;;;0.15;0.15;;;;;;;8.67;100.00;101203.63;5004578;28;20492;-74
2022/11/06 05:03:12;;;;;;;0.10;0.10;;;;;;;8.68;100.00;101200.81;5001299;28;20057;-76
2022/11/06 05:05:37;;;;;;;0.10;0.10;;;;;;;8.60;100.00;101183.53;5004640;28;20480;-74
2022/11/06 05:08:03;;;;;;;0.10;0.10;;;;;;;8.55;100.00;101179.34;5003612;28;20037;-75
2022/11/06 05:10:28;;;;;;;0.10;0.10;;;;;;;8.51;100.00;101198.38;5002507;28;20092;-79
2022/11/06 05:12:53;;;;;;;0.10;0.10;;;;;;;8.56;100.00;101201.63;4988694;28;20045;-71
2022/11/06 05:15:19;;;;;;;0.10;0.10;;;;;;;8.42;100.00;101202.47;4987021;28;20080;-78
2022/11/06 05:17:44;;;;;;;0.10;0.10;;;;;;;8.51;100.00;101175.13;5004939;28;20041;-71
2022/11/06 05:20:09;;;;;;;0.10;0.10;;;;;;;8.45;100.00;101190.69;4984099;28;20143;-73
2022/11/06 05:22:59;;;;;;;0.10;0.10;;;;;;;8.48;100.00;101186.03;5001586;28;20452;-75
2022/11/06 05:25:26;;;;;;;0.10;0.10;;;;;;;8.57;100.00;101213.19;5005478;28;20052;-73
2022/11/06 05:27:51;;;;;;;0.10;0.10;;;;;;;8.46;100.00;101212.03;5004183;28;20044;-76
2022/11/06 05:30:17;;;;;;;0.10;0.10;;;;;;;8.25;100.00;101188.31;5003311;28;20026;-75
2022/11/06 05:32:42;;;;;;;0.15;0.15;;;;;;;8.36;100.00;101176.09;5002033;28;20105;-75
2022/11/06 05:35:07;;;;;;;0.10;0.10;;;;;;;8.48;100.00;101171.78;5004325;28;20061;-76
2022/11/06 05:37:33;;;;;;;0.13;0.13;;;;;;;8.31;100.00;101181.75;5004208;28;20121;-75
2022/11/06 05:39:58;;;;;;;0.10;0.10;;;;;;;8.03;100.00;101175.44;5002592;28;20036;-77
2022/11/06 05:42:23;;;;;;;0.10;0.10;;;;;;;8.18;100.00;101178.09;4999282;28;20029;-77
2022/11/06 05:44:49;;;;;;;0.10;0.10;;;;;;;8.23;100.00;101195.56;4987753;28;20034;-73
2022/11/06 05:47:14;;;;;;;0.10;0.10;;;;;;;8.30;100.00;101192.53;5002513;28;20025;-78
2022/11/06 05:49:39;;;;;;;0.10;0.10;;;;;;;8.09;100.00;101152.78;5003395;28;20092;-73
2022/11/06 05:52:04;;;;;;;0.10;0.10;;;;;;;8.11;100.00;101186.50;5002154;28;20563;-74
2022/11/06 05:54:30;;;;;;;0.10;0.10;;;;;;;8.10;100.00;101166.06;5008039;28;20033;-74
2022/11/06 05:56:55;;;;;;;0.10;0.10;;;;;;;8.20;100.00;101176.19;4981288;28;20479;-76
2022/11/06 05:59:20;;;;;;;0.10;0.10;;;;;;;8.10;100.00;101163.38;5003425;28;20080;-75
2022/11/06 06:01:46;;;;;;;0.10;0.10;;;;;;;7.90;100.00;101143.25;4981237;28;20429;-75
2022/11/06 06:04:11;;;;;;;0.10;0.10;;;;;;;8.25;100.00;101171.41;4986215;28;20038;-77
2022/11/06 06:06:37;;;;;;;0.10;0.10;;;;;;;8.25;100.00;101172.25;4985398;28;20061;-76
2022/11/06 06:09:02;;;;;;;0.10;0.10;;;;;;;8.15;100.00;101180.97;4987422;28;20124;-76
2022/11/06 06:11:27;;;;;;;0.10;0.10;;;;;;;8.16;100.00;101140.75;5001300;28;20057;-75
2022/11/06 06:13:53;;;;;;;0.10;0.10;;;;;;;8.16;100.00;101162.16;5000358;28;20038;-76
2022/11/06 06:16:18;;;;;;;0.10;0.10;;;;;;;7.94;100.00;101136.75;4984526;28;20057;-73
2022/11/06 06:18:43;;;;;;;0.10;0.10;;;;;;;8.20;100.00;101122.69;4971752;28;20095;-71
2022/11/06 06:21:09;;;;;;;0.13;0.13;;;;;;;8.40;100.00;101145.50;4991561;28;20325;-71
2022/11/06 06:23:34;;;;;;;0.10;0.10;;;;;;;8.23;100.00;101138.56;4985517;28;20033;-75
2022/11/06 06:25:59;;;;;;;0.10;0.10;;;;;;;8.25;100.00;101142.84;4986727;28;20116;-74
2022/11/06 06:28:25;;;;;;;0.10;0.10;;;;;;;8.14;100.00;101141.78;5005852;28;20037;-76
2022/11/06 06:30:50;;;;;;;0.10;0.10;;;;;;;8.16;100.00;101153.25;4986380;28;20061;-75
2022/11/06 06:33:15;;;;;;;0.10;0.10;;;;;;;8.15;100.00;101131.03;4989593;28;20742;-78
2022/11/06 06:35:41;;;;;;;0.10;0.10;;;;;;;8.22;100.00;101118.97;5001584;28;20026;-74
2022/11/06 06:38:06;;;;;;;0.10;0.10;;;;;;;8.17;100.00;101117.53;5006775;28;20065;-74
2022/11/06 06:40:31;;;;;;;0.10;0.10;;;;;;;8.21;100.00;101132.44;4986105;28;20069;-75
2022/11/06 06:42:57;;;;;;;0.10;0.10;;;;;;;8.17;100.00;101125.56;4983648;28;20281;-77
2022/11/06 06:45:23;;;;;;;0.10;0.10;;;;;;;8.40;100.00;101143.69;4980888;28;20064;-71
2022/11/06 06:47:48;;;;;;;0.10;0.10;;;;;;;8.34;100.00;101146.75;4988249;28;20493;-74
2022/11/06 06:50:14;;;;;;;0.10;0.10;;;;;;;8.43;100.00;101158.69;5001797;28;20037;-75
2022/11/06 06:52:39;;;;;;;0.10;0.10;;;;;;;8.51;100.00;101145.69;4991040;28;20041;-74
2022/11/06 06:55:05;;;;;;;0.10;0.10;;;;;;;8.26;100.00;101135.69;4992709;28;20030;-75
2022/11/06 06:57:30;;;;;;;0.10;0.10;;;;;;;8.60;100.00;101170.16;5014221;28;20053;-76
2022/11/06 06:59:56;;;;;;;0.10;0.10;;;;;;;8.38;100.00;101140.25;5007710;28;20705;-74
2022/11/06 07:02:21;;;;;;;0.10;0.10;;;;;;;8.46;100.00;101153.16;4986115;28;20041;-75
2022/11/06 07:04:46;;;;;;;0.17;0.17;;;;;;;8.45;100.00;101143.41;4989364;28;20149;-74
2022/11/06 07:07:12;;;;;;;0.10;0.10;;;;;;;8.53;100.00;101138.44;4989193;28;20034;-71
2022/11/06 07:09:37;;;;;;;0.10;0.10;;;;;;;8.47;100.00;101125.44;5002428;28;20029;-74
2022/11/06 07:12:03;;;;;;;0.10;0.10;;;;;;;8.55;100.00;101130.31;4988369;28;20041;-76
2022/11/06 07:14:28;;;;;;;0.10;0.10;;;;;;;8.57;100.00;101131.09;4991567;28;20159;-75
2022/11/06 07:16:53;;;;;;;0.10;0.10;;;;;;;8.71;100.00;101130.19;4987907;28;20034;-77
2022/11/06 07:19:19;;;;;;;0.10;0.10;;;;;;;8.56;100.00;101132.03;5005052;28;20422;-74
2022/11/06 07:21:44;;;;;;;0.10;0.10;;;;;;;8.37;100.00;101119.78;4985483;28;20478;-73
2022/11/06 07:24:09;;;;;;;0.10;0.10;;;;;;;8.77;100.00;101131.59;4991748;28;20057;-75
2022/11/06 07:26:35;;;;;;;0.10;0.10;;;;;;;8.48;100.00;101124.47;5005732;28;20096;-76
2022/11/06 07:29:00;;;;;;;0.10;0.10;;;;;;;8.63;100.00;101116.44;4987922;28;20164;-74
2022/11/06 07:31:25;;;;;;;0.10;0.10;;;;;;;8.61;100.00;101118.34;4996212;28;20076;-78
2022/11/06 07:33:51;;;;;;;0.20;0.20;;;;;;;8.89;100.00;101119.22;4998946;28;20140;-73
2022/11/06 07:36:16;;;;;;;0.10;0.10;;;;;;;8.87;100.00;101105.06;4981286;28;20041;-73
2022/11/06 07:38:42;;;;;;;0.10;0.10;;;;;;;8.92;100.00;101127.91;4998155;28;20038;-73
2022/11/06 07:41:10;;;;;;;0.10;0.10;;;;;;;9.00;100.00;101119.38;4979875;28;20109;-76
2022/11/06 07:43:35;;;;;;;0.10;0.10;;;;;;;9.16;100.00;101137.94;4999824;28;20626;-73
2022/11/06 07:46:04;;;;;;;0.10;0.10;;;;;;;9.15;100.00;101131.72;5001661;28;20034;-75
2022/11/06 07:48:30;;;;;;;0.10;0.10;;;;;;;9.32;100.00;101147.63;4980245;28;20030;-74
2022/11/06 07:50:56;;;;;;;0.10;0.10;;;;;;;9.11;100.00;101146.28;5000067;28;20069;-74
2022/11/06 07:53:21;;;;;;;0.10;0.10;;;;;;;9.19;100.00;101131.53;4980512;28;20029;-74
2022/11/06 07:55:51;;;;;;;0.10;0.10;;;;;;;9.08;100.00;101142.97;4980967;28;20068;-74
2022/11/06 07:58:17;;;;;;;0.10;0.10;;;;;;;9.11;100.00;101134.72;4985310;28;20123;-74
2022/11/06 08:01:01;;;;;;;0.10;0.10;;;;;;;9.25;100.00;101110.53;5004373;28;20033;-73
2022/11/06 08:03:30;;;;;;;0.10;0.10;;;;;;;9.25;100.00;101112.34;5001813;28;20100;-74
2022/11/06 08:05:57;;;;;;;0.00;0.00;;;;;;;9.40;100.00;101113.13;5003876;28;20040;-74
2022/11/06 08:08:22;;;;;;;0.10;0.10;;;;;;;9.47;100.00;101124.28;4999847;28;20675;-74
2022/11/06 08:10:50;;;;;;;0.10;0.10;;;;;;;9.51;100.00;101125.78;5001629;28;20025;-75
2022/11/06 08:13:16;;;;;;;0.10;0.10;;;;;;;9.40;100.00;101137.25;4990257;28;20720;-75
2022/11/06 08:15:42;;;;;;;0.10;0.10;;;;;;;9.43;100.00;101116.44;5005614;28;20037;-76
2022/11/06 08:18:08;;;;;;;0.13;0.13;;;;;;;9.51;100.00;101131.16;5009684;28;20022;-73
2022/11/06 08:20:37;;;;;;;0.10;0.10;;;;;;;9.65;100.00;101116.81;5004276;28;20029;-73
2022/11/06 08:23:06;;;;;;;0.10;0.10;;;;;;;9.59;100.00;101131.47;4985324;28;20033;-75
2022/11/06 08:25:32;;;;;;;0.10;0.10;;;;;;;9.73;100.00;101101.88;5002153;28;20486;-73
2022/11/06 08:27:59;;;;;;;0.10;0.10;;;;;;;9.73;100.00;101111.75;5001398;28;20109;-74
2022/11/06 08:30:25;;;;;;;0.10;0.10;;;;;;;9.64;100.00;101115.09;5002448;28;20034;-74
2022/11/06 08:32:50;;;;;;;0.10;0.10;;;;;;;9.77;100.00;101107.88;4997515;28;20029;-79
2022/11/06 08:35:15;;;;;;;0.10;0.10;;;;;;;9.78;100.00;101096.19;4987528;28;20488;-76
2022/11/06 08:37:41;;;;;;;0.10;0.10;;;;;;;9.62;100.00;101076.78;4987057;28;20479;-74
2022/11/06 08:40:07;;;;;;;0.10;0.10;;;;;;;9.85;100.00;101085.88;5004193;28;20041;-72
2022/11/06 08:42:32;;;;;;;0.10;0.10;;;;;;;9.93;100.00;101075.47;4999243;28;20041;-73
2022/11/06 08:44:57;;;;;;;0.10;0.10;;;;;;;10.12;100.00;101066.09;5002180;28;20037;-73
2022/11/06 08:47:23;;;;;;;0.10;0.10;;;;;;;10.01;100.00;101075.78;5006221;28;20144;-79
2022/11/06 08:49:48;;;;;;;0.10;0.10;;;;;;;9.82;100.00;101057.47;5002721;28;20065;-74
2022/11/06 08:52:13;;;;;;;0.10;0.10;;;;;;;10.02;100.00;101052.50;5000319;28;20092;-75
2022/11/06 08:54:38;;;;;;;0.10;0.10;;;;;;;10.07;100.00;101069.13;4993443;28;20371;-76
2022/11/06 08:57:04;;;;;;;0.10;0.10;;;;;;;10.27;100.00;101066.81;4986715;28;20512;-73
2022/11/06 08:59:29;;;;;;;0.10;0.10;;;;;;;10.07;100.00;101061.06;5003152;28;20521;-75
2022/11/06 09:01:58;;;;;;;0.10;0.10;;;;;;;10.21;100.00;101068.97;4983012;28;20038;-72
2022/11/06 09:04:24;;;;;;;0.10;0.10;;;;;;;9.96;100.00;101021.63;4999127;28;20113;-75
2022/11/06 09:06:49;;;;;;;0.05;0.05;;;;;;;10.09;100.00;101066.31;4984704;28;20037;-78
2022/11/06 09:09:14;;;;;;;0.10;0.10;;;;;;;10.31;100.00;101023.56;5002200;28;20029;-73
2022/11/06 09:11:40;;;;;;;0.10;0.10;;;;;;;10.21;100.00;101041.28;4982814;28;20371;-75
2022/11/06 09:14:05;;;;;;;0.10;0.10;;;;;;;10.48;100.00;101056.38;5007025;28;20131;-78
2022/11/06 09:16:30;;;;;;;0.10;0.10;;;;;;;10.60;100.00;101049.22;4974011;28;20120;-72
2022/11/06 09:18:56;;;;;;;0.10;0.10;;;;;;;10.46;100.00;101050.25;4989259;28;20026;-75
2022/11/06 09:21:22;;;;;;;0.10;0.10;;;;;;;10.59;100.00;101026.91;5004867;28;20049;-78
2022/11/06 09:23:48;;;;;;;0.10;0.10;;;;;;;10.53;100.00;101013.06;5005576;28;20117;-74
2022/11/06 09:26:14;;;;;;;0.10;0.10;;;;;;;10.71;100.00;101025.13;4991466;28;20685;-77
2022/11/06 09:28:40;;;;;;;0.10;0.10;;;;;;;10.79;100.00;101024.53;4975695;28;20497;-75
2022/11/06 09:31:06;;;;;;;0.10;0.10;;;;;;;10.90;100.00;101010.28;5009792;28;20037;-75
2022/11/06 09:33:31;;;;;;;0.10;0.10;;;;;;;11.03;100.00;101024.47;4981056;28;20037;-76
2022/11/06 09:35:57;;;;;;;0.10;0.10;;;;;;;10.98;100.00;101007.00;5000650;28;20429;-74
2022/11/06 09:38:22;;;;;;;0.10;0.10;;;;;;;11.12;100.00;101005.94;4984553;28;20138;-78
2022/11/06 09:40:59;;;;;;;0.10;0.10;;;;;;;10.91;100.00;101003.94;5000645;28;20537;-74
2022/11/06 09:43:46;;;;;;;0.10;0.10;;;;;;;11.29;100.00;101010.00;4999880;28;20141;-75
2022/11/06 09:46:22;;;;;;;0.10;0.10;;;;;;;11.51;100.00;100993.88;5004999;28;20080;-74
2022/11/06 09:48:55;;;;;;;0.10;0.10;;;;;;;11.99;100.00;101000.84;5001975;28;20032;-74
2022/11/06 09:51:36;;;;;;;0.10;0.10;;;;;;;12.56;100.00;100995.31;5001516;28;20049;-71
2022/11/06 09:54:05;;;;;;;0.10;0.10;;;;;;;12.72;98.25;101002.09;4984046;28;20041;-76
2022/11/06 09:56:33;;;;;;;0.10;0.10;;;;;;;12.07;98.84;101008.31;5002189;28;20493;-73
2022/11/06 09:59:00;;;;;;;0.10;0.10;;;;;;;12.09;98.83;100992.00;4985333;28;20060;-75
2022/11/06 10:01:35;;;;;;;0.10;0.10;;;;;;;11.75;100.00;101000.97;5000623;28;20048;-74
2022/11/06 10:04:01;;;;;;;0.10;0.10;;;;;;;11.64;97.97;100983.00;4983768;28;20033;-77
2022/11/06 10:06:27;;;;;;;0.10;0.10;;;;;;;11.39;100.00;100963.44;4981720;28;20022;-75
2022/11/06 10:08:57;;;;;;;0.10;0.10;;;;;;;11.35;100.00;100990.72;4980100;28;20455;-73
2022/11/06 10:11:34;;;;;;;0.10;0.10;;;;;;;11.19;100.00;100983.81;4981793;28;20022;-78
2022/11/06 10:14:29;;;;;;;0.10;0.10;;;;;;;11.18;100.00;100994.72;5001309;28;20474;-76
2022/11/06 10:17:19;;;;;;;0.10;0.10;;;;;;;11.25;100.00;100982.50;4988389;28;20494;-78
2022/11/06 10:19:49;;;;;;;0.10;0.10;;;;;;;11.29;100.00;100985.81;5006159;28;20026;-76
2022/11/06 10:22:40;;;;;;;0.10;0.10;;;;;;;11.20;100.00;100969.41;4983948;28;20037;-76
2022/11/06 10:25:18;;;;;;;0.10;0.10;;;;;;;11.34;100.00;100967.50;5001703;28;20045;-75
2022/11/06 10:27:54;;;;;;;0.05;0.05;;;;;;;11.19;100.00;100986.50;4979617;28;20025;-75
2022/11/06 10:30:19;;;;;;;0.10;0.10;;;;;;;11.09;100.00;100970.25;4989283;28;20116;-76
2022/11/06 10:32:48;;;;;;;0.10;0.10;;;;;;;11.07;100.00;100990.19;5003283;28;20042;-74
2022/11/06 10:35:39;;;;;;;0.10;0.10;;;;;;;11.21;100.00;100973.81;5005232;28;20029;-75
2022/11/06 10:38:17;;;;;;;0.20;0.20;;;;;;;12.47;97.39;100987.13;5004074;28;20057;-79
2022/11/06 10:40:44;;;;;;;0.10;0.10;;;;;;;12.62;93.83;100953.53;4999371;28;20068;-77
2022/11/06 10:43:31;;;;;;;0.10;0.10;;;;;;;12.37;93.75;100973.56;4984501;28;20125;-76
2022/11/06 10:46:11;;;;;;;0.10;0.10;;;;;;;11.90;94.13;100942.38;4999348;28;20034;-77
2022/11/06 10:48:41;;;;;;;0.10;0.10;;;;;;;11.36;98.60;100965.53;4984404;28;20068;-76
2022/11/06 10:51:18;;;;;;;0.10;0.10;;;;;;;11.34;98.22;100951.38;4999576;28;20077;-75
2022/11/06 10:53:51;;;;;;;0.10;0.10;;;;;;;11.33;100.00;100952.34;5000478;28;20026;-74
2022/11/06 10:56:34;;;;;;;0.10;0.10;;;;;;;11.28;100.00;100941.94;4989823;28;20052;-76
2022/11/06 10:58:59;;;;;;;0.10;0.10;;;;;;;11.40;98.97;100930.22;4988748;28;20032;-73
2022/11/06 11:01:24;;;;;;;0.10;0.10;;;;;;;11.36;99.87;100920.69;4985677;28;20484;-76
2022/11/06 11:03:50;;;;;;;0.08;0.08;;;;;;;11.39;100.00;100924.94;5004306;28;20056;-77
2022/11/06 11:06:16;;;;;;;0.10;0.10;;;;;;;11.70;97.85;100915.28;4984503;28;20056;-76
2022/11/06 11:08:43;;;;;;;0.10;0.10;;;;;;;11.67;98.80;100911.97;4988571;28;20029;-76
2022/11/06 11:11:12;;;;;;;0.05;0.05;;;;;;;11.79;99.33;100916.34;5009440;28;20037;-75
2022/11/06 11:13:37;;;;;;;0.10;0.10;;;;;;;11.77;98.67;100898.63;5004818;28;20026;-76
2022/11/06 11:16:02;;;;;;;0.10;0.10;;;;;;;11.97;96.30;100881.69;5005319;28;20351;-78
2022/11/06 11:18:31;;;;;;;0.10;0.10;;;;;;;11.97;95.68;100888.91;4996826;28;20034;-74
2022/11/06 11:21:22;;;;;;;0.10;0.10;;;;;;;12.09;94.13;100884.38;4997879;28;20030;-75
2022/11/06 11:24:00;;;;;;;0.10;0.10;;;;;;;11.75;93.71;100881.78;5000510;28;20168;-78
2022/11/06 11:26:30;;;;;;;0.10;0.10;;;;;;;11.85;93.72;100888.09;5002991;28;20038;-78
2022/11/06 11:29:14;;;;;;;0.00;0.00;;;;;;;11.65;93.96;100847.56;4984333;28;20042;-79
2022/11/06 11:31:44;;;;;;;0.10;0.10;;;;;;;12.18;92.82;100878.22;5000440;28;20021;-76
2022/11/06 11:34:16;;;;;;;0.10;0.10;;;;;;;13.31;88.96;100882.00;4997233;28;20025;-76
2022/11/06 11:36:51;;;;;;;0.10;0.10;;;;;;;13.21;84.11;100864.94;4987365;28;20029;-75
2022/11/06 11:39:18;;;;;;;0.00;0.00;;;;;;;12.71;85.83;100881.84;5007098;28;20113;-72
2022/11/06 11:41:43;;;;;;;0.00;0.00;;;;;;;12.07;87.46;100843.28;4988456;28;20165;-75